sensor_id;sensor_type;location;lat;lon;timestamp;temperature;humidity
4615;DHT22;2320;51.362;6.946;2023-05-23T00:00:31;17.10;99.90
4615;DHT22;2320;51.362;6.946;2023-05-23T00:02:57;17.10;99.90
4615;DHT22;2320;51.362;6.946;2023-05-23T00:05:25;17.00;99.90
4615;DHT22;2320;51.362;6.946;2023-05-23T00:07:51;17.00;99.90
4615;DHT22;2320;51.362;6.946;2023-05-23T00:10:16;16.90;99.90
4615;DHT22;2320;51.362;6.946;2023-05-23T00:12:42;16.90;99.90
4615;DHT22;2320;51.362;6.946;2023-05-23T00:15:07;17.00;99.90
4615;DHT22;2320;51.362;6.946;2023-05-23T00:17:34;17.10;99.90
4615;DHT22;2320;51.362;6.946;2023-05-23T00:20:02;17.10;99.90
4615;DHT22;2320;51.362;6.946;2023-05-23T00:22:28;17.30;99.90
4615;DHT22;2320;51.362;6.946;2023-05-23T00:24:53;17.00;99.90
4615;DHT22;2320;51.362;6.946;2023-05-23T00:27:19;17.00;99.90
4615;DHT22;2320;51.362;6.946;2023-05-23T00:29:44;17.10;99.90
4615;DHT22;2320;51.362;6.946;2023-05-23T00:32:10;17.10;99.90
4615;DHT22;2320;51.362;6.946;2023-05-23T00:34:35;17.20;99.90
4615;DHT22;2320;51.362;6.946;2023-05-23T00:37:02;17.10;99.90
4615;DHT22;2320;51.362;6.946;2023-05-23T00:39:28;17.20;99.90
4615;DHT22;2320;51.362;6.946;2023-05-23T00:41:54;17.10;99.90
4615;DHT22;2320;51.362;6.946;2023-05-23T00:44:20;17.20;99.90
4615;DHT22;2320;51.362;6.946;2023-05-23T00:46:46;17.30;99.90
4615;DHT22;2320;51.362;6.946;2023-05-23T00:49:13;17.30;99.90
4615;DHT22;2320;51.362;6.946;2023-05-23T00:51:39;17.20;99.90
4615;DHT22;2320;51.362;6.946;2023-05-23T00:54:07;17.20;99.90
4615;DHT22;2320;51.362;6.946;2023-05-23T00:56:33;17.20;99.90
4615;DHT22;2320;51.362;6.946;2023-05-23T00:58:59;17.10;99.90
4615;DHT22;2320;51.362;6.946;2023-05-23T01:01:25;17.10;99.90
4615;DHT22;2320;51.362;6.946;2023-05-23T01:03:51;17.10;99.90
4615;DHT22;2320;51.362;6.946;2023-05-23T01:06:17;17.00;99.90
4615;DHT22;2320;51.362;6.946;2023-05-23T01:08:42;16.70;99.90
4615;DHT22;2320;51.362;6.946;2023-05-23T01:11:18;16.90;99.90
4615;DHT22;2320;51.362;6.946;2023-05-23T01:14:06;17.00;99.90
4615;DHT22;2320;51.362;6.946;2023-05-23T01:19:27;16.60;99.90
4615;DHT22;2320;51.362;6.946;2023-05-23T01:21:44;16.70;99.90
4615;DHT22;2320;51.362;6.946;2023-05-23T01:29:16;16.80;99.90
4615;DHT22;2320;51.362;6.946;2023-05-23T01:31:45;16.80;99.90
4615;DHT22;2320;51.362;6.946;2023-05-23T01:34:13;17.00;99.90
4615;DHT22;2320;51.362;6.946;2023-05-23T01:36:40;17.10;99.90
4615;DHT22;2320;51.362;6.946;2023-05-23T01:39:06;17.00;99.90
4615;DHT22;2320;51.362;6.946;2023-05-23T01:41:32;17.00;99.90
4615;DHT22;2320;51.362;6.946;2023-05-23T01:43:57;16.90;99.90
4615;DHT22;2320;51.362;6.946;2023-05-23T01:46:23;17.00;99.90
4615;DHT22;2320;51.362;6.946;2023-05-23T01:48:49;17.00;99.90
4615;DHT22;2320;51.362;6.946;2023-05-23T01:51:15;17.20;99.90
4615;DHT22;2320;51.362;6.946;2023-05-23T01:53:40;17.20;99.90
4615;DHT22;2320;51.362;6.946;2023-05-23T01:56:07;17.10;99.90
4615;DHT22;2320;51.362;6.946;2023-05-23T01:58:33;17.20;99.90
4615;DHT22;2320;51.362;6.946;2023-05-23T02:00:58;17.20;99.90
4615;DHT22;2320;51.362;6.946;2023-05-23T02:03:24;17.10;99.90
4615;DHT22;2320;51.362;6.946;2023-05-23T02:05:50;17.00;99.90
4615;DHT22;2320;51.362;6.946;2023-05-23T02:08:15;17.00;99.90
4615;DHT22;2320;51.362;6.946;2023-05-23T02:10:41;16.90;99.90
4615;DHT22;2320;51.362;6.946;2023-05-23T02:13:06;17.00;99.90
4615;DHT22;2320;51.362;6.946;2023-05-23T02:15:32;17.00;99.90
4615;DHT22;2320;51.362;6.946;2023-05-23T02:17:57;17.10;99.90
4615;DHT22;2320;51.362;6.946;2023-05-23T02:20:23;17.00;99.90
4615;DHT22;2320;51.362;6.946;2023-05-23T02:22:48;17.00;99.90
4615;DHT22;2320;51.362;6.946;2023-05-23T02:25:14;17.00;99.90
4615;DHT22;2320;51.362;6.946;2023-05-23T02:27:40;17.10;99.90
4615;DHT22;2320;51.362;6.946;2023-05-23T02:30:05;17.10;99.90
4615;DHT22;2320;51.362;6.946;2023-05-23T02:32:31;17.10;99.90
4615;DHT22;2320;51.362;6.946;2023-05-23T02:34:56;17.10;99.90
4615;DHT22;2320;51.362;6.946;2023-05-23T02:37:22;17.20;99.90
4615;DHT22;2320;51.362;6.946;2023-05-23T02:39:47;17.00;99.90
4615;DHT22;2320;51.362;6.946;2023-05-23T02:42:13;17.00;99.90
4615;DHT22;2320;51.362;6.946;2023-05-23T02:44:38;17.20;99.90
4615;DHT22;2320;51.362;6.946;2023-05-23T02:47:04;17.10;99.90
4615;DHT22;2320;51.362;6.946;2023-05-23T02:49:30;17.20;99.90
4615;DHT22;2320;51.362;6.946;2023-05-23T02:51:55;17.00;99.90
4615;DHT22;2320;51.362;6.946;2023-05-23T02:54:21;17.10;99.90
4615;DHT22;2320;51.362;6.946;2023-05-23T02:56:46;16.90;99.90
4615;DHT22;2320;51.362;6.946;2023-05-23T02:59:11;16.90;99.90
4615;DHT22;2320;51.362;6.946;2023-05-23T03:01:37;17.10;99.90
4615;DHT22;2320;51.362;6.946;2023-05-23T03:04:03;17.10;99.90
4615;DHT22;2320;51.362;6.946;2023-05-23T03:06:28;17.10;99.90
4615;DHT22;2320;51.362;6.946;2023-05-23T03:08:56;17.00;99.90
4615;DHT22;2320;51.362;6.946;2023-05-23T03:11:21;17.00;99.90
4615;DHT22;2320;51.362;6.946;2023-05-23T03:13:47;17.10;99.90
4615;DHT22;2320;51.362;6.946;2023-05-23T03:16:12;16.90;99.90
4615;DHT22;2320;51.362;6.946;2023-05-23T03:18:38;16.80;99.90
4615;DHT22;2320;51.362;6.946;2023-05-23T03:21:06;16.80;99.90
4615;DHT22;2320;51.362;6.946;2023-05-23T03:23:31;16.90;99.90
4615;DHT22;2320;51.362;6.946;2023-05-23T03:25:57;16.80;99.90
4615;DHT22;2320;51.362;6.946;2023-05-23T03:28:24;16.70;99.90
4615;DHT22;2320;51.362;6.946;2023-05-23T03:30:49;16.60;99.90
4615;DHT22;2320;51.362;6.946;2023-05-23T03:33:15;16.80;99.90
4615;DHT22;2320;51.362;6.946;2023-05-23T03:35:40;17.00;99.90
4615;DHT22;2320;51.362;6.946;2023-05-23T03:38:06;16.90;99.90
4615;DHT22;2320;51.362;6.946;2023-05-23T03:40:31;16.90;99.90
4615;DHT22;2320;51.362;6.946;2023-05-23T03:43:03;16.80;99.90
4615;DHT22;2320;51.362;6.946;2023-05-23T03:45:32;16.90;99.90
4615;DHT22;2320;51.362;6.946;2023-05-23T03:47:58;16.90;99.90
4615;DHT22;2320;51.362;6.946;2023-05-23T03:50:23;16.90;99.90
4615;DHT22;2320;51.362;6.946;2023-05-23T03:52:49;16.90;99.90
4615;DHT22;2320;51.362;6.946;2023-05-23T03:55:14;16.80;99.90
4615;DHT22;2320;51.362;6.946;2023-05-23T03:57:40;16.90;99.90
4615;DHT22;2320;51.362;6.946;2023-05-23T04:00:05;16.80;99.90
4615;DHT22;2320;51.362;6.946;2023-05-23T04:02:36;16.80;99.90
4615;DHT22;2320;51.362;6.946;2023-05-23T04:05:01;16.80;99.90
4615;DHT22;2320;51.362;6.946;2023-05-23T04:07:27;16.70;99.90
4615;DHT22;2320;51.362;6.946;2023-05-23T04:09:52;16.80;99.90
4615;DHT22;2320;51.362;6.946;2023-05-23T04:12:18;16.70;99.90
4615;DHT22;2320;51.362;6.946;2023-05-23T04:14:46;16.60;99.90
4615;DHT22;2320;51.362;6.946;2023-05-23T04:17:12;16.60;99.90
4615;DHT22;2320;51.362;6.946;2023-05-23T04:19:38;16.30;99.90
4615;DHT22;2320;51.362;6.946;2023-05-23T04:22:04;16.30;99.90
4615;DHT22;2320;51.362;6.946;2023-05-23T04:24:29;16.10;99.90
4615;DHT22;2320;51.362;6.946;2023-05-23T04:26:55;16.20;99.90
4615;DHT22;2320;51.362;6.946;2023-05-23T04:29:20;16.30;99.90
4615;DHT22;2320;51.362;6.946;2023-05-23T04:31:46;16.40;99.90
4615;DHT22;2320;51.362;6.946;2023-05-23T04:34:11;16.60;99.90
4615;DHT22;2320;51.362;6.946;2023-05-23T04:36:37;16.60;99.90
4615;DHT22;2320;51.362;6.946;2023-05-23T04:39:05;16.50;99.90
4615;DHT22;2320;51.362;6.946;2023-05-23T04:41:31;16.70;99.90
4615;DHT22;2320;51.362;6.946;2023-05-23T04:43:56;16.60;99.90
4615;DHT22;2320;51.362;6.946;2023-05-23T04:46:22;16.40;99.90
4615;DHT22;2320;51.362;6.946;2023-05-23T04:48:50;16.60;99.90
4615;DHT22;2320;51.362;6.946;2023-05-23T04:51:16;16.60;99.90
4615;DHT22;2320;51.362;6.946;2023-05-23T04:53:41;16.70;99.90
4615;DHT22;2320;51.362;6.946;2023-05-23T04:56:07;16.70;99.90
4615;DHT22;2320;51.362;6.946;2023-05-23T04:58:34;16.60;99.90
4615;DHT22;2320;51.362;6.946;2023-05-23T05:00:59;16.60;99.90
4615;DHT22;2320;51.362;6.946;2023-05-23T05:03:25;16.50;99.90
4615;DHT22;2320;51.362;6.946;2023-05-23T05:05:51;16.80;99.90
4615;DHT22;2320;51.362;6.946;2023-05-23T05:08:17;16.80;99.90
4615;DHT22;2320;51.362;6.946;2023-05-23T05:10:44;16.90;99.90
4615;DHT22;2320;51.362;6.946;2023-05-23T05:13:09;17.00;99.90
4615;DHT22;2320;51.362;6.946;2023-05-23T05:15:35;17.10;99.90
4615;DHT22;2320;51.362;6.946;2023-05-23T05:18:00;17.10;99.90
4615;DHT22;2320;51.362;6.946;2023-05-23T05:20:26;17.20;99.90
4615;DHT22;2320;51.362;6.946;2023-05-23T05:22:57;17.30;99.90
4615;DHT22;2320;51.362;6.946;2023-05-23T05:25:23;17.30;99.90
4615;DHT22;2320;51.362;6.946;2023-05-23T05:27:49;17.10;99.90
4615;DHT22;2320;51.362;6.946;2023-05-23T05:30:15;17.30;99.90
4615;DHT22;2320;51.362;6.946;2023-05-23T05:32:40;17.00;99.90
4615;DHT22;2320;51.362;6.946;2023-05-23T05:35:06;17.00;99.90
4615;DHT22;2320;51.362;6.946;2023-05-23T05:37:32;16.90;99.90
4615;DHT22;2320;51.362;6.946;2023-05-23T05:39:58;16.80;99.90
4615;DHT22;2320;51.362;6.946;2023-05-23T05:42:30;16.80;99.90
4615;DHT22;2320;51.362;6.946;2023-05-23T05:44:55;16.80;99.90
4615;DHT22;2320;51.362;6.946;2023-05-23T05:47:21;16.80;99.90
4615;DHT22;2320;51.362;6.946;2023-05-23T05:49:46;16.60;99.90
4615;DHT22;2320;51.362;6.946;2023-05-23T05:52:12;16.70;99.90
4615;DHT22;2320;51.362;6.946;2023-05-23T05:54:37;17.00;99.90
4615;DHT22;2320;51.362;6.946;2023-05-23T05:57:03;17.30;99.90
4615;DHT22;2320;51.362;6.946;2023-05-23T05:59:28;17.40;99.90
4615;DHT22;2320;51.362;6.946;2023-05-23T06:01:54;17.60;99.90
4615;DHT22;2320;51.362;6.946;2023-05-23T06:04:19;17.60;99.90
4615;DHT22;2320;51.362;6.946;2023-05-23T06:06:45;17.50;99.90
4615;DHT22;2320;51.362;6.946;2023-05-23T06:09:10;17.20;99.90
4615;DHT22;2320;51.362;6.946;2023-05-23T06:11:36;17.20;99.90
4615;DHT22;2320;51.362;6.946;2023-05-23T06:14:05;17.30;99.90
4615;DHT22;2320;51.362;6.946;2023-05-23T06:16:31;17.40;99.90
4615;DHT22;2320;51.362;6.946;2023-05-23T06:18:57;17.40;99.90
4615;DHT22;2320;51.362;6.946;2023-05-23T06:21:22;17.50;99.90
4615;DHT22;2320;51.362;6.946;2023-05-23T06:23:47;17.50;99.90
4615;DHT22;2320;51.362;6.946;2023-05-23T06:26:13;17.50;99.90
4615;DHT22;2320;51.362;6.946;2023-05-23T06:28:38;17.60;99.90
4615;DHT22;2320;51.362;6.946;2023-05-23T06:31:04;17.50;99.90
4615;DHT22;2320;51.362;6.946;2023-05-23T06:33:30;17.30;99.90
4615;DHT22;2320;51.362;6.946;2023-05-23T06:35:56;17.00;99.90
4615;DHT22;2320;51.362;6.946;2023-05-23T06:38:21;17.00;99.90
4615;DHT22;2320;51.362;6.946;2023-05-23T06:40:47;17.00;99.90
4615;DHT22;2320;51.362;6.946;2023-05-23T06:43:12;16.90;99.90
4615;DHT22;2320;51.362;6.946;2023-05-23T06:45:38;16.90;99.90
4615;DHT22;2320;51.362;6.946;2023-05-23T06:48:03;16.90;99.90
4615;DHT22;2320;51.362;6.946;2023-05-23T06:50:29;16.90;99.90
4615;DHT22;2320;51.362;6.946;2023-05-23T06:52:54;16.90;99.90
4615;DHT22;2320;51.362;6.946;2023-05-23T06:55:21;17.00;99.90
4615;DHT22;2320;51.362;6.946;2023-05-23T06:57:46;17.00;99.90
4615;DHT22;2320;51.362;6.946;2023-05-23T07:00:14;17.10;99.90
4615;DHT22;2320;51.362;6.946;2023-05-23T07:02:40;16.80;99.90
4615;DHT22;2320;51.362;6.946;2023-05-23T07:05:06;16.80;99.90
4615;DHT22;2320;51.362;6.946;2023-05-23T07:07:31;16.60;99.90
4615;DHT22;2320;51.362;6.946;2023-05-23T07:09:57;16.70;99.90
4615;DHT22;2320;51.362;6.946;2023-05-23T07:12:22;16.60;99.90
4615;DHT22;2320;51.362;6.946;2023-05-23T07:14:48;16.70;99.90
4615;DHT22;2320;51.362;6.946;2023-05-23T07:17:13;16.60;99.90
4615;DHT22;2320;51.362;6.946;2023-05-23T07:19:39;16.70;99.90
4615;DHT22;2320;51.362;6.946;2023-05-23T07:22:05;16.80;99.90
4615;DHT22;2320;51.362;6.946;2023-05-23T07:24:30;16.80;99.90
4615;DHT22;2320;51.362;6.946;2023-05-23T07:26:56;16.70;99.90
4615;DHT22;2320;51.362;6.946;2023-05-23T07:29:21;16.80;99.90
4615;DHT22;2320;51.362;6.946;2023-05-23T07:31:47;16.50;99.90
4615;DHT22;2320;51.362;6.946;2023-05-23T07:34:14;16.50;99.90
4615;DHT22;2320;51.362;6.946;2023-05-23T07:36:39;16.50;99.90
4615;DHT22;2320;51.362;6.946;2023-05-23T07:39:06;16.20;99.90
4615;DHT22;2320;51.362;6.946;2023-05-23T07:41:32;16.20;99.90
4615;DHT22;2320;51.362;6.946;2023-05-23T07:43:57;16.50;99.90
4615;DHT22;2320;51.362;6.946;2023-05-23T07:46:23;16.30;99.90
4615;DHT22;2320;51.362;6.946;2023-05-23T07:48:48;16.40;99.90
4615;DHT22;2320;51.362;6.946;2023-05-23T07:51:14;16.30;99.90
4615;DHT22;2320;51.362;6.946;2023-05-23T07:53:39;16.50;99.90
4615;DHT22;2320;51.362;6.946;2023-05-23T07:56:05;16.50;99.90
4615;DHT22;2320;51.362;6.946;2023-05-23T07:58:31;16.70;99.90
4615;DHT22;2320;51.362;6.946;2023-05-23T08:00:57;16.80;99.90
4615;DHT22;2320;51.362;6.946;2023-05-23T08:03:22;17.00;99.90
4615;DHT22;2320;51.362;6.946;2023-05-23T08:05:48;17.20;99.90
4615;DHT22;2320;51.362;6.946;2023-05-23T08:08:14;17.30;99.90
4615;DHT22;2320;51.362;6.946;2023-05-23T08:10:39;17.00;99.90
4615;DHT22;2320;51.362;6.946;2023-05-23T08:13:05;17.00;99.90
4615;DHT22;2320;51.362;6.946;2023-05-23T08:15:31;16.80;99.90
4615;DHT22;2320;51.362;6.946;2023-05-23T08:17:57;16.90;99.90
4615;DHT22;2320;51.362;6.946;2023-05-23T08:20:25;17.00;99.90
4615;DHT22;2320;51.362;6.946;2023-05-23T08:22:58;17.10;99.90
4615;DHT22;2320;51.362;6.946;2023-05-23T08:25:24;17.00;99.90
4615;DHT22;2320;51.362;6.946;2023-05-23T08:27:49;16.70;99.90
4615;DHT22;2320;51.362;6.946;2023-05-23T08:30:15;16.50;99.90
4615;DHT22;2320;51.362;6.946;2023-05-23T08:32:41;16.70;99.90
4615;DHT22;2320;51.362;6.946;2023-05-23T08:35:06;16.90;99.90
4615;DHT22;2320;51.362;6.946;2023-05-23T08:37:32;16.90;99.90
4615;DHT22;2320;51.362;6.946;2023-05-23T08:39:57;16.90;99.90
4615;DHT22;2320;51.362;6.946;2023-05-23T08:42:23;16.90;99.90
4615;DHT22;2320;51.362;6.946;2023-05-23T08:44:48;16.70;99.90
4615;DHT22;2320;51.362;6.946;2023-05-23T08:47:14;16.60;99.90
4615;DHT22;2320;51.362;6.946;2023-05-23T08:49:42;16.40;99.90
4615;DHT22;2320;51.362;6.946;2023-05-23T08:52:08;16.30;99.90
4615;DHT22;2320;51.362;6.946;2023-05-23T08:54:36;16.30;99.90
4615;DHT22;2320;51.362;6.946;2023-05-23T08:57:01;16.40;99.90
4615;DHT22;2320;51.362;6.946;2023-05-23T08:59:27;16.50;99.90
4615;DHT22;2320;51.362;6.946;2023-05-23T09:01:54;16.40;99.90
4615;DHT22;2320;51.362;6.946;2023-05-23T09:04:20;16.20;99.90
4615;DHT22;2320;51.362;6.946;2023-05-23T09:06:46;16.20;99.90
4615;DHT22;2320;51.362;6.946;2023-05-23T09:09:11;16.10;99.90
4615;DHT22;2320;51.362;6.946;2023-05-23T09:11:37;16.20;99.90
4615;DHT22;2320;51.362;6.946;2023-05-23T09:14:03;16.10;99.90
4615;DHT22;2320;51.362;6.946;2023-05-23T09:16:32;16.10;99.90
4615;DHT22;2320;51.362;6.946;2023-05-23T09:18:59;16.30;99.90
4615;DHT22;2320;51.362;6.946;2023-05-23T09:21:33;16.50;99.90
4615;DHT22;2320;51.362;6.946;2023-05-23T09:23:59;16.40;99.90
4615;DHT22;2320;51.362;6.946;2023-05-23T09:26:24;16.10;99.90
4615;DHT22;2320;51.362;6.946;2023-05-23T09:28:50;16.20;99.90
4615;DHT22;2320;51.362;6.946;2023-05-23T09:31:15;16.10;99.90
4615;DHT22;2320;51.362;6.946;2023-05-23T09:33:45;16.40;99.90
4615;DHT22;2320;51.362;6.946;2023-05-23T09:36:12;16.40;99.90
4615;DHT22;2320;51.362;6.946;2023-05-23T09:38:38;16.30;99.90
4615;DHT22;2320;51.362;6.946;2023-05-23T09:41:03;16.10;99.90
4615;DHT22;2320;51.362;6.946;2023-05-23T09:43:29;16.20;99.90
4615;DHT22;2320;51.362;6.946;2023-05-23T09:45:54;16.20;99.90
4615;DHT22;2320;51.362;6.946;2023-05-23T09:48:27;16.20;99.90
4615;DHT22;2320;51.362;6.946;2023-05-23T09:50:56;16.20;99.90
4615;DHT22;2320;51.362;6.946;2023-05-23T09:53:21;16.10;99.90
4615;DHT22;2320;51.362;6.946;2023-05-23T09:55:48;16.20;99.90
4615;DHT22;2320;51.362;6.946;2023-05-23T09:58:15;16.50;99.90
4615;DHT22;2320;51.362;6.946;2023-05-23T10:00:41;16.40;99.90
4615;DHT22;2320;51.362;6.946;2023-05-23T10:03:11;16.40;99.90
4615;DHT22;2320;51.362;6.946;2023-05-23T10:05:44;16.50;99.90
4615;DHT22;2320;51.362;6.946;2023-05-23T10:08:13;16.40;99.90
4615;DHT22;2320;51.362;6.946;2023-05-23T10:11:37;16.60;99.90
4615;DHT22;2320;51.362;6.946;2023-05-23T10:13:27;16.60;99.90
4615;DHT22;2320;51.362;6.946;2023-05-23T10:16:27;16.40;99.90
4615;DHT22;2320;51.362;6.946;2023-05-23T10:18:47;16.50;99.90
4615;DHT22;2320;51.362;6.946;2023-05-23T10:21:23;16.70;99.90
4615;DHT22;2320;51.362;6.946;2023-05-23T10:23:49;16.50;99.90
4615;DHT22;2320;51.362;6.946;2023-05-23T10:26:14;16.30;99.90
4615;DHT22;2320;51.362;6.946;2023-05-23T10:28:40;16.10;99.90
4615;DHT22;2320;51.362;6.946;2023-05-23T10:31:06;15.70;99.90
4615;DHT22;2320;51.362;6.946;2023-05-23T10:33:33;15.70;99.90
4615;DHT22;2320;51.362;6.946;2023-05-23T10:36:07;15.80;99.90
4615;DHT22;2320;51.362;6.946;2023-05-23T10:41:09;16.50;99.90
4615;DHT22;2320;51.362;6.946;2023-05-23T10:43:39;16.50;99.90
4615;DHT22;2320;51.362;6.946;2023-05-23T10:46:07;16.70;99.90
4615;DHT22;2320;51.362;6.946;2023-05-23T10:48:33;16.50;99.90
4615;DHT22;2320;51.362;6.946;2023-05-23T10:51:11;16.70;99.90
4615;DHT22;2320;51.362;6.946;2023-05-23T10:53:42;16.80;99.90
4615;DHT22;2320;51.362;6.946;2023-05-23T10:56:09;17.20;99.90
4615;DHT22;2320;51.362;6.946;2023-05-23T10:58:35;17.90;99.90
4615;DHT22;2320;51.362;6.946;2023-05-23T11:01:04;19.10;99.90
4615;DHT22;2320;51.362;6.946;2023-05-23T11:03:30;19.50;99.90
4615;DHT22;2320;51.362;6.946;2023-05-23T11:05:58;19.40;99.90
4615;DHT22;2320;51.362;6.946;2023-05-23T11:08:23;19.10;99.90
4615;DHT22;2320;51.362;6.946;2023-05-23T11:11:01;19.20;99.90
4615;DHT22;2320;51.362;6.946;2023-05-23T11:16:31;19.10;99.90
4615;DHT22;2320;51.362;6.946;2023-05-23T11:21:40;18.90;99.90
4615;DHT22;2320;51.362;6.946;2023-05-23T11:24:08;18.60;99.90
4615;DHT22;2320;51.362;6.946;2023-05-23T11:26:34;18.80;99.90
4615;DHT22;2320;51.362;6.946;2023-05-23T11:28:59;18.90;99.90
4615;DHT22;2320;51.362;6.946;2023-05-23T11:31:27;18.80;99.90
4615;DHT22;2320;51.362;6.946;2023-05-23T11:33:53;18.90;99.90
4615;DHT22;2320;51.362;6.946;2023-05-23T11:36:22;18.70;99.90
4615;DHT22;2320;51.362;6.946;2023-05-23T11:38:49;18.40;99.90
4615;DHT22;2320;51.362;6.946;2023-05-23T11:41:17;18.70;99.90
4615;DHT22;2320;51.362;6.946;2023-05-23T11:43:51;18.70;99.90
4615;DHT22;2320;51.362;6.946;2023-05-23T11:46:17;18.80;99.90
4615;DHT22;2320;51.362;6.946;2023-05-23T11:48:45;18.70;99.90
4615;DHT22;2320;51.362;6.946;2023-05-23T11:51:11;18.20;99.90
4615;DHT22;2320;51.362;6.946;2023-05-23T11:53:37;18.00;99.90
4615;DHT22;2320;51.362;6.946;2023-05-23T11:56:03;18.20;99.90
4615;DHT22;2320;51.362;6.946;2023-05-23T11:58:29;18.30;99.90
4615;DHT22;2320;51.362;6.946;2023-05-23T12:01:13;18.30;99.90
4615;DHT22;2320;51.362;6.946;2023-05-23T12:03:45;18.60;99.90
4615;DHT22;2320;51.362;6.946;2023-05-23T12:06:13;18.70;99.90
4615;DHT22;2320;51.362;6.946;2023-05-23T12:08:39;18.80;99.90
4615;DHT22;2320;51.362;6.946;2023-05-23T12:11:04;18.80;99.90
4615;DHT22;2320;51.362;6.946;2023-05-23T12:13:30;18.60;99.90
4615;DHT22;2320;51.362;6.946;2023-05-23T12:15:56;18.30;99.90
4615;DHT22;2320;51.362;6.946;2023-05-23T12:18:22;18.10;99.90
4615;DHT22;2320;51.362;6.946;2023-05-23T12:20:51;18.10;99.90
4615;DHT22;2320;51.362;6.946;2023-05-23T12:23:17;18.20;99.90
4615;DHT22;2320;51.362;6.946;2023-05-23T12:25:42;18.20;99.90
4615;DHT22;2320;51.362;6.946;2023-05-23T12:28:08;18.60;99.90
4615;DHT22;2320;51.362;6.946;2023-05-23T12:30:40;19.00;99.90
4615;DHT22;2320;51.362;6.946;2023-05-23T12:33:09;19.40;99.90
4615;DHT22;2320;51.362;6.946;2023-05-23T12:35:34;19.60;99.90
4615;DHT22;2320;51.362;6.946;2023-05-23T12:38:00;19.60;99.90
4615;DHT22;2320;51.362;6.946;2023-05-23T12:40:25;19.70;99.90
4615;DHT22;2320;51.362;6.946;2023-05-23T12:42:54;20.00;99.90
4615;DHT22;2320;51.362;6.946;2023-05-23T12:45:21;20.60;99.90
4615;DHT22;2320;51.362;6.946;2023-05-23T12:47:46;20.80;99.90
4615;DHT22;2320;51.362;6.946;2023-05-23T12:50:12;21.00;99.90
4615;DHT22;2320;51.362;6.946;2023-05-23T12:52:38;21.00;99.90
4615;DHT22;2320;51.362;6.946;2023-05-23T12:55:04;20.60;99.90
4615;DHT22;2320;51.362;6.946;2023-05-23T12:57:30;20.20;99.90
4615;DHT22;2320;51.362;6.946;2023-05-23T12:59:56;20.00;99.90
4615;DHT22;2320;51.362;6.946;2023-05-23T13:02:21;20.00;99.90
4615;DHT22;2320;51.362;6.946;2023-05-23T13:04:47;20.00;99.90
4615;DHT22;2320;51.362;6.946;2023-05-23T13:07:12;19.50;99.90
4615;DHT22;2320;51.362;6.946;2023-05-23T13:09:38;19.70;99.90
4615;DHT22;2320;51.362;6.946;2023-05-23T13:12:04;19.70;99.90
4615;DHT22;2320;51.362;6.946;2023-05-23T13:14:30;19.60;99.90
4615;DHT22;2320;51.362;6.946;2023-05-23T13:16:55;19.70;99.90
4615;DHT22;2320;51.362;6.946;2023-05-23T13:19:20;19.60;99.90
4615;DHT22;2320;51.362;6.946;2023-05-23T13:21:46;19.80;99.90
4615;DHT22;2320;51.362;6.946;2023-05-23T13:24:11;19.90;99.90
4615;DHT22;2320;51.362;6.946;2023-05-23T13:26:37;19.50;99.90
4615;DHT22;2320;51.362;6.946;2023-05-23T13:29:03;19.40;99.90
4615;DHT22;2320;51.362;6.946;2023-05-23T13:31:29;19.20;99.90
4615;DHT22;2320;51.362;6.946;2023-05-23T13:33:54;19.20;99.90
4615;DHT22;2320;51.362;6.946;2023-05-23T13:36:20;19.30;99.90
4615;DHT22;2320;51.362;6.946;2023-05-23T13:38:46;19.30;99.90
4615;DHT22;2320;51.362;6.946;2023-05-23T13:41:11;19.60;99.90
4615;DHT22;2320;51.362;6.946;2023-05-23T13:43:37;19.60;99.90
4615;DHT22;2320;51.362;6.946;2023-05-23T13:46:02;19.40;99.90
4615;DHT22;2320;51.362;6.946;2023-05-23T13:48:28;19.60;99.90
4615;DHT22;2320;51.362;6.946;2023-05-23T13:50:54;19.50;99.90
4615;DHT22;2320;51.362;6.946;2023-05-23T13:53:19;19.80;99.90
4615;DHT22;2320;51.362;6.946;2023-05-23T13:55:45;19.70;99.90
4615;DHT22;2320;51.362;6.946;2023-05-23T13:58:11;19.50;99.90
4615;DHT22;2320;51.362;6.946;2023-05-23T14:00:37;19.30;99.90
4615;DHT22;2320;51.362;6.946;2023-05-23T14:03:02;19.50;99.90
4615;DHT22;2320;51.362;6.946;2023-05-23T14:05:28;19.40;99.90
4615;DHT22;2320;51.362;6.946;2023-05-23T14:07:53;19.50;99.90
4615;DHT22;2320;51.362;6.946;2023-05-23T14:10:19;19.80;99.90
4615;DHT22;2320;51.362;6.946;2023-05-23T14:12:45;19.80;99.90
4615;DHT22;2320;51.362;6.946;2023-05-23T14:15:10;19.60;99.90
4615;DHT22;2320;51.362;6.946;2023-05-23T14:17:36;19.60;99.90
4615;DHT22;2320;51.362;6.946;2023-05-23T14:20:02;19.60;99.90
4615;DHT22;2320;51.362;6.946;2023-05-23T14:22:28;19.60;99.90
4615;DHT22;2320;51.362;6.946;2023-05-23T14:24:53;19.80;99.90
4615;DHT22;2320;51.362;6.946;2023-05-23T14:27:19;19.80;99.90
4615;DHT22;2320;51.362;6.946;2023-05-23T14:29:44;20.00;99.90
4615;DHT22;2320;51.362;6.946;2023-05-23T14:32:11;20.30;99.90
4615;DHT22;2320;51.362;6.946;2023-05-23T14:34:36;20.50;99.90
4615;DHT22;2320;51.362;6.946;2023-05-23T14:37:02;20.50;99.90
4615;DHT22;2320;51.362;6.946;2023-05-23T14:39:27;20.50;99.90
4615;DHT22;2320;51.362;6.946;2023-05-23T14:41:53;20.80;99.90
4615;DHT22;2320;51.362;6.946;2023-05-23T14:44:18;20.50;99.90
4615;DHT22;2320;51.362;6.946;2023-05-23T14:46:44;19.90;99.90
4615;DHT22;2320;51.362;6.946;2023-05-23T14:49:13;19.40;99.90
4615;DHT22;2320;51.362;6.946;2023-05-23T14:51:39;19.30;99.90
4615;DHT22;2320;51.362;6.946;2023-05-23T14:54:04;19.60;99.90
4615;DHT22;2320;51.362;6.946;2023-05-23T14:56:30;19.60;99.90
4615;DHT22;2320;51.362;6.946;2023-05-23T14:58:55;20.00;99.90
4615;DHT22;2320;51.362;6.946;2023-05-23T15:01:21;20.10;99.90
4615;DHT22;2320;51.362;6.946;2023-05-23T15:03:47;20.20;99.90
4615;DHT22;2320;51.362;6.946;2023-05-23T15:06:12;20.10;99.90
4615;DHT22;2320;51.362;6.946;2023-05-23T15:08:38;20.10;99.90
4615;DHT22;2320;51.362;6.946;2023-05-23T15:11:03;20.20;99.90
4615;DHT22;2320;51.362;6.946;2023-05-23T15:13:29;20.30;99.90
4615;DHT22;2320;51.362;6.946;2023-05-23T15:15:55;20.10;99.90
4615;DHT22;2320;51.362;6.946;2023-05-23T15:18:20;20.10;99.90
4615;DHT22;2320;51.362;6.946;2023-05-23T15:20:46;20.00;99.90
4615;DHT22;2320;51.362;6.946;2023-05-23T15:23:11;19.90;99.90
4615;DHT22;2320;51.362;6.946;2023-05-23T15:25:37;19.80;99.90
4615;DHT22;2320;51.362;6.946;2023-05-23T15:28:02;19.80;99.90
4615;DHT22;2320;51.362;6.946;2023-05-23T15:30:28;19.80;99.90
4615;DHT22;2320;51.362;6.946;2023-05-23T15:32:53;19.70;99.90
4615;DHT22;2320;51.362;6.946;2023-05-23T15:35:19;19.70;99.90
4615;DHT22;2320;51.362;6.946;2023-05-23T15:37:44;19.50;99.90
4615;DHT22;2320;51.362;6.946;2023-05-23T15:40:10;19.30;99.90
4615;DHT22;2320;51.362;6.946;2023-05-23T15:42:36;19.30;99.90
4615;DHT22;2320;51.362;6.946;2023-05-23T15:45:02;19.40;99.90
4615;DHT22;2320;51.362;6.946;2023-05-23T15:47:27;19.50;99.90
4615;DHT22;2320;51.362;6.946;2023-05-23T15:49:53;19.50;99.90
4615;DHT22;2320;51.362;6.946;2023-05-23T15:52:18;19.30;99.90
4615;DHT22;2320;51.362;6.946;2023-05-23T15:54:44;19.50;99.90
4615;DHT22;2320;51.362;6.946;2023-05-23T15:57:10;19.70;99.90
4615;DHT22;2320;51.362;6.946;2023-05-23T15:59:35;19.60;99.90
4615;DHT22;2320;51.362;6.946;2023-05-23T16:02:02;19.50;99.90
4615;DHT22;2320;51.362;6.946;2023-05-23T16:04:33;19.20;99.90
4615;DHT22;2320;51.362;6.946;2023-05-23T16:07:03;19.10;99.90
4615;DHT22;2320;51.362;6.946;2023-05-23T16:09:28;19.00;99.90
4615;DHT22;2320;51.362;6.946;2023-05-23T16:11:55;18.90;99.90